createdAt,value
2023-03-03T00:00:19.419Z,0.30
2023-03-03T00:02:49.716Z,0.30
2023-03-03T00:05:21.927Z,0.30
2023-03-03T00:07:53.745Z,0.30
2023-03-03T00:10:24.427Z,0.20
2023-03-03T00:12:55.352Z,0.10
2023-03-03T00:15:27.805Z,0.10
2023-03-03T00:17:57.929Z,0.00
2023-03-03T00:20:37.485Z,0.00
2023-03-03T00:23:38.988Z,-0.10
2023-03-03T00:26:23.057Z,-0.20
2023-03-03T00:28:55.200Z,-0.40
2023-03-03T00:31:38.912Z,-0.40
2023-03-03T00:34:27.222Z,-0.30
2023-03-03T00:37:00.533Z,-0.30
2023-03-03T00:39:36.061Z,-0.20
2023-03-03T00:42:15.652Z,-0.10
2023-03-03T00:44:47.554Z,-0.10
2023-03-03T00:47:31.229Z,-0.20
2023-03-03T00:50:38.976Z,-0.10
2023-03-03T00:53:18.263Z,-0.10
2023-03-03T00:55:50.250Z,-0.10
2023-03-03T00:58:22.400Z,-0.20
2023-03-03T01:00:56.006Z,-0.20
2023-03-03T01:03:28.968Z,-0.30
2023-03-03T01:05:59.531Z,-0.20
2023-03-03T01:08:34.420Z,-0.30
2023-03-03T01:11:10.776Z,-0.40
2023-03-03T01:13:42.431Z,-0.50
2023-03-03T01:16:14.091Z,-0.50
2023-03-03T01:18:44.596Z,-0.50
2023-03-03T01:21:14.813Z,-0.60
2023-03-03T01:23:47.487Z,-0.50
2023-03-03T01:26:18.225Z,-0.60
2023-03-03T01:28:48.468Z,-0.60
2023-03-03T01:31:18.760Z,-0.70
2023-03-03T01:33:48.956Z,-0.80
2023-03-03T01:36:19.017Z,-0.80
2023-03-03T01:38:50.683Z,-0.90
2023-03-03T01:41:20.955Z,-0.90
2023-03-03T01:43:52.765Z,-0.90
2023-03-03T01:46:50.629Z,-1.00
2023-03-03T01:49:24.440Z,-1.00
2023-03-03T01:51:59.140Z,-1.10
2023-03-03T01:54:36.459Z,-1.30
2023-03-03T01:57:13.036Z,-1.40
2023-03-03T01:59:47.289Z,-1.40
2023-03-03T02:02:17.919Z,-1.50
2023-03-03T02:04:48.336Z,-1.60
2023-03-03T02:07:20.015Z,-1.60
2023-03-03T02:10:00.217Z,-1.60
2023-03-03T02:12:36.447Z,-1.60
2023-03-03T02:15:19.252Z,-1.60
2023-03-03T02:17:50.780Z,-1.60
2023-03-03T02:20:32.638Z,-1.60
2023-03-03T02:23:10.243Z,-1.80
2023-03-03T02:25:50.276Z,-1.80
2023-03-03T02:28:22.132Z,-1.90
2023-03-03T02:30:52.246Z,-1.90
2023-03-03T02:33:22.786Z,-1.90
2023-03-03T02:35:53.988Z,-2.00
2023-03-03T02:38:30.280Z,-2.00
2023-03-03T02:41:09.888Z,-2.00
2023-03-03T02:43:47.297Z,-2.10
2023-03-03T02:46:17.919Z,-2.20
2023-03-03T02:48:48.055Z,-2.30
2023-03-03T02:51:18.285Z,-2.40
2023-03-03T02:53:48.697Z,-2.30
2023-03-03T02:56:18.708Z,-2.40
2023-03-03T02:58:50.524Z,-2.30
2023-03-03T03:01:21.090Z,-2.40
2023-03-03T03:03:51.485Z,-2.40
2023-03-03T03:06:22.295Z,-2.50
2023-03-03T03:08:53.261Z,-2.50
2023-03-03T03:11:23.702Z,-2.50
2023-03-03T03:13:55.382Z,-2.60
2023-03-03T03:16:25.574Z,-2.70
2023-03-03T03:18:55.935Z,-2.80
2023-03-03T03:21:26.178Z,-3.00
2023-03-03T03:23:56.473Z,-3.10
2023-03-03T03:26:27.224Z,-3.10
2023-03-03T03:28:59.242Z,-3.20
2023-03-03T03:31:29.500Z,-3.30
2023-03-03T03:34:00.931Z,-3.40
2023-03-03T03:36:31.081Z,-3.40
2023-03-03T03:39:03.447Z,-3.50
2023-03-03T03:41:33.686Z,-3.60
2023-03-03T03:44:05.433Z,-3.70
2023-03-03T03:46:35.885Z,-3.80
2023-03-03T03:49:06.279Z,-3.80
2023-03-03T03:51:38.813Z,-3.90
2023-03-03T03:54:09.188Z,-3.90
2023-03-03T03:56:39.295Z,-3.90
2023-03-03T03:59:11.336Z,-3.90
2023-03-03T04:01:41.434Z,-4.00
2023-03-03T04:04:11.529Z,-4.10
2023-03-03T04:06:41.801Z,-4.20
2023-03-03T04:09:11.974Z,-4.50
2023-03-03T04:11:42.556Z,-4.60
2023-03-03T04:14:14.481Z,-4.80
2023-03-03T04:16:45.066Z,-4.90
2023-03-03T04:19:15.133Z,-4.90
2023-03-03T04:21:45.329Z,-4.80
2023-03-03T04:24:15.598Z,-4.80
2023-03-03T04:26:45.797Z,-4.90
2023-03-03T04:29:17.488Z,-4.90
2023-03-03T04:31:47.907Z,-5.00
2023-03-03T04:34:18.120Z,-4.90
2023-03-03T04:36:48.173Z,-4.90
2023-03-03T04:39:18.279Z,-4.90
2023-03-03T04:41:48.331Z,-5.00
2023-03-03T04:44:19.982Z,-5.10
2023-03-03T04:46:50.219Z,-5.10
2023-03-03T04:49:20.361Z,-5.10
2023-03-03T04:51:50.396Z,-5.10
2023-03-03T04:54:20.476Z,-5.10
2023-03-03T04:56:50.734Z,-5.00
2023-03-03T04:59:22.582Z,-5.10
2023-03-03T05:01:53.422Z,-5.20
2023-03-03T05:04:24.559Z,-5.40
2023-03-03T05:06:54.865Z,-5.50
2023-03-03T05:09:25.569Z,-5.60
2023-03-03T05:11:55.831Z,-5.60
2023-03-03T05:14:28.726Z,-5.60
2023-03-03T05:16:58.758Z,-5.50
2023-03-03T05:19:28.979Z,-5.50
2023-03-03T05:21:59.421Z,-5.60
2023-03-03T05:24:29.736Z,-5.60
2023-03-03T05:26:59.802Z,-5.80
2023-03-03T05:29:32.224Z,-5.90
2023-03-03T05:32:02.442Z,-6.00
2023-03-03T05:34:32.517Z,-6.10
2023-03-03T05:37:04.307Z,-6.20
2023-03-03T05:39:34.911Z,-6.30
2023-03-03T05:42:05.442Z,-6.40
2023-03-03T05:44:37.251Z,-6.50
2023-03-03T05:47:07.690Z,-6.50
2023-03-03T05:49:38.067Z,-6.50
2023-03-03T05:52:09.687Z,-6.50
2023-03-03T05:54:39.961Z,-6.50
2023-03-03T05:57:09.975Z,-6.60
2023-03-03T05:59:41.838Z,-6.50
2023-03-03T06:02:12.010Z,-6.60
2023-03-03T06:04:42.370Z,-6.60
2023-03-03T06:07:12.440Z,-6.60
2023-03-03T06:09:42.661Z,-6.60
2023-03-03T06:12:13.300Z,-6.60
2023-03-03T06:14:44.959Z,-6.50
2023-03-03T06:17:14.983Z,-6.60
2023-03-03T06:19:45.083Z,-6.60
2023-03-03T06:22:15.263Z,-6.70
2023-03-03T06:24:45.635Z,-6.70
2023-03-03T06:27:15.805Z,-6.80
2023-03-03T06:29:47.613Z,-6.80
2023-03-03T06:32:17.839Z,-6.90
2023-03-03T06:34:47.968Z,-6.90
2023-03-03T06:37:18.052Z,-7.00
2023-03-03T06:39:48.185Z,-7.00
2023-03-03T06:42:19.548Z,-7.10
2023-03-03T06:44:51.368Z,-7.30
2023-03-03T06:47:21.957Z,-7.30
2023-03-03T06:49:52.054Z,-7.50
2023-03-03T06:52:25.920Z,-7.70
2023-03-03T06:54:58.348Z,-7.70
2023-03-03T06:57:31.355Z,-7.80
2023-03-03T07:00:25.791Z,-7.80
2023-03-03T07:03:01.655Z,-7.80
2023-03-03T07:05:33.699Z,-7.90
2023-03-03T07:08:03.789Z,-7.90
2023-03-03T07:10:34.331Z,-8.00
2023-03-03T07:13:18.748Z,-8.00
2023-03-03T07:15:51.741Z,-8.00
2023-03-03T07:18:41.887Z,-8.10
2023-03-03T07:21:22.841Z,-8.30
2023-03-03T07:23:54.260Z,-8.30
2023-03-03T07:26:31.313Z,-8.30
2023-03-03T07:29:02.887Z,-8.30
2023-03-03T07:31:38.554Z,-8.40
2023-03-03T07:34:22.758Z,-8.40
2023-03-03T07:36:55.932Z,-8.50
2023-03-03T07:39:39.077Z,-8.50
2023-03-03T07:42:22.974Z,-8.50
2023-03-03T07:44:55.898Z,-8.50
2023-03-03T07:47:30.414Z,-8.50
2023-03-03T07:50:02.739Z,-8.50
2023-03-03T07:52:41.602Z,-8.50
2023-03-03T07:55:32.709Z,-8.50
2023-03-03T07:58:20.524Z,-8.50
2023-03-03T08:01:28.685Z,-8.40
2023-03-03T08:04:00.615Z,-8.40
2023-03-03T08:06:46.755Z,-8.50
2023-03-03T08:09:42.386Z,-8.50
2023-03-03T08:12:42.517Z,-8.60
2023-03-03T08:15:26.504Z,-8.80
2023-03-03T08:17:57.975Z,-8.90
2023-03-03T08:20:52.743Z,-9.00
2023-03-03T08:23:23.852Z,-9.10
2023-03-03T08:25:55.159Z,-9.00
2023-03-03T08:28:25.689Z,-9.00
2023-03-03T08:31:08.932Z,-9.10
2023-03-03T08:33:43.234Z,-9.20
2023-03-03T08:36:15.581Z,-9.20
2023-03-03T08:38:45.720Z,-9.20
2023-03-03T08:41:16.325Z,-9.40
2023-03-03T08:43:46.728Z,-9.50
2023-03-03T08:46:17.076Z,-9.40
2023-03-03T08:48:47.183Z,-9.40
2023-03-03T08:51:18.852Z,-9.30
2023-03-03T08:53:48.916Z,-9.30
2023-03-03T08:56:19.138Z,-9.40
2023-03-03T08:59:01.869Z,-9.60
2023-03-03T09:01:33.133Z,-9.60
2023-03-03T09:04:03.394Z,-9.60
2023-03-03T09:06:35.136Z,-9.70
2023-03-03T09:09:05.453Z,-9.70
2023-03-03T09:11:36.246Z,-9.70
2023-03-03T09:14:13.078Z,-9.70
2023-03-03T09:16:48.030Z,-9.70
2023-03-03T09:19:27.826Z,-9.80
2023-03-03T09:22:04.092Z,-9.90
2023-03-03T09:24:38.302Z,-10.20
2023-03-03T09:27:21.130Z,-10.40
2023-03-03T09:29:51.646Z,-10.70
2023-03-03T09:32:32.594Z,-10.80
2023-03-03T09:35:03.415Z,-10.90
2023-03-03T09:37:41.105Z,-11.10
2023-03-03T09:40:36.056Z,-11.10
2023-03-03T09:43:12.026Z,-11.20
2023-03-03T09:46:00.920Z,-11.10
2023-03-03T09:48:51.763Z,-11.10
2023-03-03T09:51:46.714Z,-11.10
2023-03-03T09:54:42.187Z,-11.10
2023-03-03T09:57:17.546Z,-11.30
2023-03-03T10:00:11.957Z,-11.30
2023-03-03T10:02:57.805Z,-11.40
2023-03-03T10:05:40.630Z,-11.30
2023-03-03T10:08:36.766Z,-11.30
2023-03-03T10:11:15.503Z,-11.20
2023-03-03T10:14:03.794Z,-11.20
2023-03-03T10:16:50.098Z,-11.10
2023-03-03T10:19:39.336Z,-11.00
2023-03-03T10:22:24.980Z,-11.10
2023-03-03T10:25:06.947Z,-11.10
2023-03-03T10:27:49.643Z,-11.20
2023-03-03T10:30:39.996Z,-11.10
2023-03-03T10:33:23.047Z,-11.20
2023-03-03T10:36:12.742Z,-11.30
2023-03-03T10:38:56.569Z,-11.40
2023-03-03T10:41:50.371Z,-11.40
2023-03-03T10:44:49.668Z,-11.50
2023-03-03T10:47:44.990Z,-11.60
2023-03-03T10:50:23.551Z,-11.70
2023-03-03T10:53:03.531Z,-11.80
2023-03-03T10:55:39.861Z,-11.60
2023-03-03T10:58:39.194Z,-11.40
2023-03-03T11:01:24.426Z,-11.30
2023-03-03T11:04:28.184Z,-11.40
2023-03-03T11:07:06.946Z,-11.50
2023-03-03T11:09:56.421Z,-11.50
2023-03-03T11:12:48.030Z,-11.60
2023-03-03T11:15:37.792Z,-11.50
2023-03-03T11:18:44.707Z,-11.50
2023-03-03T11:21:23.045Z,-11.60
2023-03-03T11:24:15.679Z,-11.80
2023-03-03T11:27:02.390Z,-11.90
2023-03-03T11:29:56.106Z,-12.00
2023-03-03T11:32:36.036Z,-12.30
2023-03-03T11:35:25.664Z,-12.60
2023-03-03T11:38:12.921Z,-12.50
2023-03-03T11:40:51.001Z,-12.50
2023-03-03T11:43:36.145Z,-12.50
2023-03-03T11:46:12.678Z,-12.70
2023-03-03T11:48:52.524Z,-12.90
2023-03-03T11:51:35.052Z,-13.10
2023-03-03T11:54:12.114Z,-13.50
2023-03-03T11:56:44.890Z,-13.80
2023-03-03T11:59:40.257Z,-14.00
2023-03-03T12:02:25.735Z,-14.20
2023-03-03T12:04:58.521Z,-14.10
2023-03-03T12:10:22.448Z,-13.90
2023-03-03T12:13:00.690Z,-13.90
2023-03-03T12:15:38.732Z,-14.00
2023-03-03T12:18:25.118Z,-14.10
2023-03-03T12:21:08.217Z,-14.20
2023-03-03T12:23:58.582Z,-14.20
2023-03-03T12:26:36.966Z,-14.00
2023-03-03T12:29:16.205Z,-13.90
2023-03-03T12:31:53.636Z,-13.70
2023-03-03T12:34:29.232Z,-13.40
2023-03-03T12:37:27.776Z,-13.30
2023-03-03T12:40:09.792Z,-13.00
2023-03-03T12:42:56.069Z,-13.00
2023-03-03T12:45:40.076Z,-12.90
2023-03-03T12:48:16.190Z,-12.70
2023-03-03T12:50:59.845Z,-12.30
2023-03-03T12:54:02.663Z,-12.30
2023-03-03T12:56:40.203Z,-12.10
2023-03-03T12:59:18.335Z,-12.00
2023-03-03T13:02:02.877Z,-11.70
2023-03-03T13:04:39.156Z,-11.50
2023-03-03T13:07:18.259Z,-11.30
2023-03-03T13:10:04.377Z,-11.10
2023-03-03T13:12:42.365Z,-10.90
2023-03-03T13:15:21.280Z,-10.90
2023-03-03T13:18:01.305Z,-10.80
2023-03-03T13:20:42.926Z,-10.70
2023-03-03T13:23:18.242Z,-10.60
2023-03-03T13:25:53.705Z,-10.50
2023-03-03T13:28:36.226Z,-10.40
2023-03-03T13:31:14.577Z,-10.20
2023-03-03T13:33:51.942Z,-10.10
2023-03-03T13:36:24.349Z,-10.10
2023-03-03T13:38:57.907Z,-10.00
2023-03-03T13:41:35.467Z,-9.90
2023-03-03T13:44:11.529Z,-9.80
2023-03-03T13:46:48.293Z,-9.70
2023-03-03T13:49:40.416Z,-9.60
2023-03-03T13:52:12.988Z,-9.60
2023-03-03T13:55:09.520Z,-9.50
2023-03-03T13:57:53.710Z,-9.40
2023-03-03T14:00:38.616Z,-9.40
2023-03-03T14:03:47.090Z,-9.20
2023-03-03T14:06:21.790Z,-9.10
2023-03-03T14:09:11.833Z,-8.90
2023-03-03T14:11:48.992Z,-8.80
2023-03-03T14:14:39.363Z,-8.70
2023-03-03T14:17:21.337Z,-8.70
2023-03-03T14:20:03.618Z,-8.60
2023-03-03T14:22:44.536Z,-8.50
2023-03-03T14:25:16.402Z,-8.40
2023-03-03T14:28:13.336Z,-8.40
2023-03-03T14:30:44.554Z,-8.20
2023-03-03T14:33:32.859Z,-8.20
2023-03-03T14:36:12.657Z,-8.00
2023-03-03T14:38:52.368Z,-7.90
2023-03-03T14:41:38.210Z,-7.80
2023-03-03T14:44:30.782Z,-7.60
2023-03-03T14:47:20.689Z,-7.50
2023-03-03T14:49:51.605Z,-7.40
2023-03-03T14:52:28.124Z,-7.30
2023-03-03T14:55:01.895Z,-7.30
2023-03-03T14:57:47.048Z,-7.20
2023-03-03T15:00:36.644Z,-7.20
2023-03-03T15:03:25.597Z,-7.00
2023-03-03T15:05:58.521Z,-7.00
2023-03-03T15:08:35.776Z,-6.90
2023-03-03T15:11:23.470Z,-6.70
2023-03-03T15:13:53.591Z,-6.60
2023-03-03T15:16:26.046Z,-6.40
2023-03-03T15:19:40.059Z,-6.30
2023-03-03T15:22:21.095Z,-6.30
2023-03-03T15:25:00.039Z,-6.00
2023-03-03T15:27:38.930Z,-5.80
2023-03-03T15:30:20.392Z,-5.70
2023-03-03T15:32:56.201Z,-5.50
2023-03-03T15:35:38.247Z,-5.20
2023-03-03T15:38:24.037Z,-5.10
2023-03-03T15:41:02.324Z,-4.80
2023-03-03T15:43:39.470Z,-4.40
2023-03-03T15:46:22.075Z,-4.10
2023-03-03T15:49:12.337Z,-4.20
2023-03-03T15:52:03.112Z,-3.90
2023-03-03T15:54:46.682Z,-3.60
2023-03-03T15:57:24.322Z,-3.60
2023-03-03T16:00:14.793Z,-3.50
2023-03-03T16:02:53.189Z,-3.00
2023-03-03T16:05:27.700Z,-2.70
2023-03-03T16:08:14.093Z,-2.30
2023-03-03T16:10:57.274Z,-2.00
2023-03-03T16:13:46.187Z,-1.60
2023-03-03T16:16:33.097Z,-1.20
2023-03-03T16:19:16.522Z,-1.70
2023-03-03T16:22:06.801Z,-1.40
2023-03-03T16:24:50.287Z,-0.70
2023-03-03T16:27:27.354Z,-0.40
2023-03-03T16:30:09.442Z,-0.30
2023-03-03T16:32:46.515Z,0.40
2023-03-03T16:35:24.281Z,1.30
2023-03-03T16:38:03.896Z,1.90
2023-03-03T16:40:39.114Z,2.60
2023-03-03T16:43:21.111Z,2.10
2023-03-03T16:45:52.168Z,2.20
2023-03-03T16:48:33.963Z,2.40
2023-03-03T16:51:19.674Z,2.40
2023-03-03T16:53:59.805Z,3.00
2023-03-03T16:56:37.020Z,3.60
2023-03-03T16:59:27.128Z,4.10
2023-03-03T17:02:09.750Z,4.30
2023-03-03T17:04:45.907Z,4.50
2023-03-03T17:07:33.681Z,4.60
2023-03-03T17:10:16.715Z,4.60
2023-03-03T17:13:02.632Z,5.10
2023-03-03T17:15:47.005Z,4.70
2023-03-03T17:18:23.947Z,4.70
2023-03-03T17:21:00.500Z,5.20
2023-03-03T17:24:03.201Z,4.80
2023-03-03T17:27:04.318Z,4.50
2023-03-03T17:29:58.460Z,4.50
2023-03-03T17:32:44.986Z,5.10
2023-03-03T17:35:28.538Z,5.50
2023-03-03T17:38:09.387Z,5.80
2023-03-03T17:40:52.764Z,5.80
2023-03-03T17:43:27.545Z,5.70
2023-03-03T17:46:03.036Z,5.20
2023-03-03T17:49:01.427Z,5.30
2023-03-03T17:51:46.301Z,5.30
2023-03-03T17:54:39.062Z,4.90
2023-03-03T17:57:26.388Z,5.00
2023-03-03T18:00:17.033Z,5.20
2023-03-03T18:03:30.445Z,5.50
2023-03-03T18:06:22.995Z,5.50
2023-03-03T18:09:14.096Z,5.40
2023-03-03T18:12:01.470Z,5.80
2023-03-03T18:15:18.832Z,4.90
2023-03-03T18:18:07.948Z,3.90
2023-03-03T18:21:02.237Z,3.80
2023-03-03T18:23:42.268Z,3.80
2023-03-03T18:26:36.207Z,4.30
2023-03-03T18:29:29.304Z,4.80
2023-03-03T18:32:20.636Z,4.80
2023-03-03T18:34:53.152Z,5.00
2023-03-03T18:37:45.928Z,5.30
2023-03-03T18:40:33.739Z,4.80
2023-03-03T18:43:41.941Z,3.90
2023-03-03T18:46:35.596Z,4.50
2023-03-03T18:49:07.862Z,4.30
2023-03-03T18:51:55.189Z,4.20
2023-03-03T18:54:32.130Z,3.50
2023-03-03T18:57:17.686Z,2.70
2023-03-03T18:59:59.592Z,2.60
2023-03-03T19:02:47.513Z,2.60
2023-03-03T19:05:25.513Z,3.10
2023-03-03T19:08:01.856Z,2.90
2023-03-03T19:11:00.272Z,2.30
2023-03-03T19:13:51.070Z,2.80
2023-03-03T19:16:39.326Z,2.40
2023-03-03T19:19:16.832Z,1.80
2023-03-03T19:21:51.838Z,1.30
2023-03-03T19:24:35.851Z,1.60
2023-03-03T19:27:23.534Z,1.90
2023-03-03T19:30:29.215Z,2.00
2023-03-03T19:33:23.577Z,1.50
2023-03-03T19:36:17.305Z,1.20
2023-03-03T19:38:59.295Z,1.70
2023-03-03T19:41:46.875Z,1.60
2023-03-03T19:44:42.232Z,1.40
2023-03-03T19:47:19.496Z,1.70
2023-03-03T19:50:03.284Z,1.40
2023-03-03T19:52:40.676Z,1.20
2023-03-03T19:55:29.777Z,1.30
2023-03-03T19:58:18.337Z,1.20
2023-03-03T20:00:52.200Z,1.30
2023-03-03T20:03:58.919Z,0.80
2023-03-03T20:06:39.967Z,1.20
2023-03-03T20:09:25.533Z,0.60
2023-03-03T20:12:26.262Z,0.60
2023-03-03T20:15:04.252Z,0.50
2023-03-03T20:17:56.768Z,0.50
2023-03-03T20:20:53.851Z,0.40
2023-03-03T20:23:29.101Z,0.50
2023-03-03T20:26:05.112Z,0.50
2023-03-03T20:28:58.391Z,0.20
2023-03-03T20:31:36.250Z,0.10
2023-03-03T20:34:14.601Z,0.00
2023-03-03T20:37:00.768Z,-0.20
2023-03-03T20:39:45.909Z,-0.50
2023-03-03T20:42:29.701Z,-0.50
2023-03-03T20:45:17.089Z,-0.80
2023-03-03T20:47:58.654Z,-0.80
2023-03-03T20:50:37.988Z,-1.00
2023-03-03T20:53:20.463Z,-1.10
2023-03-03T20:56:00.838Z,-1.20
2023-03-03T20:58:43.283Z,-1.20
2023-03-03T21:01:15.668Z,-1.20
2023-03-03T21:03:47.224Z,-1.40
2023-03-03T21:06:19.057Z,-1.40
2023-03-03T21:08:53.844Z,-1.60
2023-03-03T21:11:44.190Z,-1.60
2023-03-03T21:14:21.430Z,-1.60
2023-03-03T21:16:52.520Z,-2.00
2023-03-03T21:19:30.961Z,-2.20
2023-03-03T21:22:02.753Z,-2.20
2023-03-03T21:24:52.465Z,-2.30
2023-03-03T21:27:31.270Z,-2.30
2023-03-03T21:30:12.264Z,-2.40
2023-03-03T21:32:44.133Z,-2.60
2023-03-03T21:35:16.951Z,-2.60
2023-03-03T21:37:50.463Z,-2.70
2023-03-03T21:40:25.801Z,-2.80
2023-03-03T21:42:57.479Z,-2.90
2023-03-03T21:45:30.748Z,-2.90
2023-03-03T21:48:02.684Z,-3.00
2023-03-03T21:50:33.537Z,-3.20
2023-03-03T21:53:03.720Z,-3.30
2023-03-03T21:55:33.962Z,-3.30
2023-03-03T21:58:04.220Z,-3.40
2023-03-03T22:00:35.850Z,-3.50
2023-03-03T22:03:06.103Z,-3.60
2023-03-03T22:05:36.430Z,-3.70
2023-03-03T22:08:07.622Z,-3.80
2023-03-03T22:10:37.923Z,-3.90
2023-03-03T22:13:08.061Z,-4.00
2023-03-03T22:15:39.809Z,-4.10
2023-03-03T22:18:09.947Z,-4.20
2023-03-03T22:20:40.008Z,-4.30
2023-03-03T22:23:10.146Z,-4.30
2023-03-03T22:25:40.262Z,-4.40
2023-03-03T22:28:10.721Z,-4.50
2023-03-03T22:30:42.455Z,-4.60
2023-03-03T22:33:12.581Z,-4.70
2023-03-03T22:35:42.686Z,-4.80
2023-03-03T22:38:12.864Z,-4.80
2023-03-03T22:40:42.945Z,-4.90
2023-03-03T22:43:15.262Z,-4.90
2023-03-03T22:45:47.375Z,-5.00
2023-03-03T22:48:17.527Z,-5.00
2023-03-03T22:50:48.070Z,-5.10
2023-03-03T22:53:18.188Z,-5.10
2023-03-03T22:55:48.378Z,-5.10
2023-03-03T22:58:20.373Z,-5.20
2023-03-03T23:00:52.044Z,-5.20
2023-03-03T23:03:22.920Z,-5.30
2023-03-03T23:05:53.310Z,-5.30
2023-03-03T23:08:24.003Z,-5.30
2023-03-03T23:10:54.093Z,-5.20
2023-03-03T23:13:25.809Z,-5.20
2023-03-03T23:16:00.590Z,-5.30
2023-03-03T23:18:30.726Z,-5.30
2023-03-03T23:21:00.771Z,-5.30
2023-03-03T23:23:31.282Z,-5.30
2023-03-03T23:26:01.519Z,-5.30
2023-03-03T23:28:31.607Z,-5.30
2023-03-03T23:31:04.538Z,-5.30
2023-03-03T23:33:37.032Z,-5.40
2023-03-03T23:36:07.455Z,-5.40
2023-03-03T23:38:42.956Z,-5.30
2023-03-03T23:41:13.456Z,-5.30
2023-03-03T23:43:44.064Z,-5.30
2023-03-03T23:46:17.331Z,-5.30
2023-03-03T23:48:48.243Z,-5.30
2023-03-03T23:51:18.511Z,-5.30
2023-03-03T23:53:48.842Z,-5.30
2023-03-03T23:56:19.382Z,-5.40
2023-03-03T23:58:50.190Z,-5.40
